Main page
METAR-TAF:

METAR-TAF

Airports :

Seville, Spain

Seville Airport

latitude: 37-25N, longitude: 005-54W, elevation: 34 m

Current weather observation

The report was made 21 minutes ago, at 03:30 UTC
Wind 2 kt from the East
Temperature 17°C
Humidity 88%
Pressure 1018 hPa
Visibility 10 km or more
no clouds below 1500 m and no cumulonimbus

METAR: LEZL 200330Z 09002KT CAVOK 17/15 Q1018 NOSIG

Time: 05:51 (03:51 UTC)

Forecast

The report was made 1 hour and 51 minutes ago, at 02:00 UTC
Forecast valid from 20 at 03 UTC to 21 at 03 UTC
Wind 2 kt from variable directions
Visibility 10 km or more
no clouds below 1500 m and no cumulonimbus
Becoming
from 20 at 15 UTC to 20 at 18 UTC
Wind 10 kt from the Southwest
Becoming
from 20 at 22 UTC to 21 at 02 UTC
Wind 2 kt from variable directions

TAF: LEZL 200200Z 2003/2103 VRB02KT CAVOK TX32/2015Z TN15/2006Z BECMG 2015/2018 22010KT BECMG 2022/2102 VRB02KT

Weather observations and forecasts of more than 4000 airports (METAR and TAF reports).

The available stations are represented by yellow and red dots on the map.

Hover mouse over dot to see the name of the station.

Then click to see weather observations and forecasts.

To change the map : click on the green buttons with a black cross to zoom in, on the green button with a dash to zoom out, or on the green arrows for adjacent maps.


METAR-TAF: